Time;durP1;ratioP1;P1;durP2;ratioP2;P2;SDS_P1;SDS_P2;PMS_P1;PMS_P2;Temp;Humidity;BMP_temperature;BMP_pressure;BME280_temperature;BME280_humidity;BME280_pressure;Samples;Min_cycle;Max_cycle;Signal;HPM_P1;HPM_P2
2022/01/14 00:01:27;;;;;;;4.50;2.78;;;23.50;30.80;;;;;;5025423;28;20060;-43
2022/01/14 00:03:53;;;;;;;4.10;2.50;;;23.40;30.60;;;;;;5025681;28;20037;-43
2022/01/14 00:06:19;;;;;;;3.70;2.20;;;23.40;30.70;;;;;;5025514;28;20040;-44
2022/01/14 00:08:44;;;;;;;4.65;2.58;;;23.40;30.70;;;;;;5006842;28;20033;-44
2022/01/14 00:11:15;;;;;;;3.85;2.38;;;23.40;30.70;;;;;;5006542;28;20030;-43
2022/01/14 00:13:58;;;;;;;4.00;2.55;;;23.30;30.70;;;;;;5024383;28;20092;-43
2022/01/14 00:16:24;;;;;;;4.10;2.58;;;23.40;30.70;;;;;;5025199;28;20555;-44
2022/01/14 00:18:50;;;;;;;3.75;2.55;;;23.30;30.70;;;;;;5025312;28;20029;-43
2022/01/14 00:21:15;;;;;;;4.07;2.20;;;23.30;30.70;;;;;;5024832;28;20021;-45
2022/01/14 00:23:42;;;;;;;3.83;2.42;;;23.30;30.60;;;;;;5024949;28;20481;-46
2022/01/14 00:34:05;;;;;;;3.47;2.20;;;23.30;30.80;;;;;;5019251;28;20068;-46
2022/01/14 00:36:31;;;;;;;3.60;1.92;;;23.20;30.70;;;;;;5025243;28;20060;-46
2022/01/14 00:38:57;;;;;;;4.25;2.70;;;23.20;30.60;;;;;;5024815;28;20040;-47
2022/01/14 00:41:23;;;;;;;4.30;2.60;;;23.20;30.70;;;;;;5024843;28;20116;-45
2022/01/14 00:43:52;;;;;;;4.05;2.40;;;23.20;30.70;;;;;;5024116;28;20063;-45
2022/01/14 00:46:18;;;;;;;3.17;1.98;;;23.20;30.70;;;;;;5024220;28;20513;-46
2022/01/14 00:48:44;;;;;;;3.95;2.20;;;23.20;30.70;;;;;;5024729;28;20083;-45
2022/01/14 00:51:10;;;;;;;4.20;2.50;;;23.20;30.60;;;;;;5023004;28;20071;-45
2022/01/14 00:53:36;;;;;;;3.72;2.35;;;23.10;30.70;;;;;;5024167;28;20087;-46
2022/01/14 00:56:09;;;;;;;4.30;2.45;;;23.10;30.70;;;;;;5024008;28;20497;-46
2022/01/14 01:01:19;;;;;;;3.78;2.38;;;23.10;30.70;;;;;;5003675;28;20121;-46
2022/01/14 01:03:45;;;;;;;3.80;2.20;;;23.10;30.60;;;;;;5003271;28;20112;-45
2022/01/14 01:06:11;;;;;;;4.65;2.60;;;23.00;30.60;;;;;;5004705;28;20037;-45
2022/01/14 01:08:38;;;;;;;3.70;2.30;;;23.00;30.70;;;;;;5005397;28;20042;-46
2022/01/14 01:11:06;;;;;;;4.07;2.63;;;23.00;30.70;;;;;;5004779;28;20029;-47
2022/01/14 01:13:36;;;;;;;3.85;2.35;;;23.00;30.70;;;;;;5007146;28;20712;-47
2022/01/14 01:16:03;;;;;;;4.00;2.47;;;23.00;30.70;;;;;;5024792;28;20029;-45
2022/01/14 01:18:29;;;;;;;4.47;2.63;;;23.00;30.70;;;;;;5024482;28;20033;-46
2022/01/14 01:20:55;;;;;;;4.13;2.72;;;23.00;30.70;;;;;;5023927;28;20025;-45
2022/01/14 01:23:21;;;;;;;4.53;2.92;;;22.90;30.70;;;;;;5024431;28;20118;-45
2022/01/14 01:25:53;;;;;;;4.43;2.80;;;22.90;30.80;;;;;;5024240;28;20668;-45
2022/01/14 01:28:19;;;;;;;4.35;2.60;;;22.90;30.70;;;;;;5023102;28;20433;-45
2022/01/14 01:30:51;;;;;;;3.85;2.20;;;22.90;30.70;;;;;;5004305;28;20022;-46
2022/01/14 01:33:18;;;;;;;3.70;2.50;;;22.90;30.80;;;;;;5004363;28;20626;-45
2022/01/14 01:35:43;;;;;;;3.70;2.30;;;22.90;30.70;;;;;;5004803;28;20456;-46
2022/01/14 01:38:15;;;;;;;3.75;2.22;;;22.90;30.80;;;;;;5007790;28;20101;-46
2022/01/14 01:40:43;;;;;;;4.10;2.63;;;22.90;30.70;;;;;;5008379;28;20183;-45
2022/01/14 01:43:10;;;;;;;3.60;2.40;;;22.80;30.60;;;;;;5008209;28;20076;-45
2022/01/14 01:45:36;;;;;;;4.32;2.85;;;22.80;30.80;;;;;;5027313;28;20063;-45
2022/01/14 01:48:02;;;;;;;4.00;2.78;;;22.80;30.80;;;;;;5027768;28;20478;-45
2022/01/14 01:50:30;;;;;;;4.03;2.60;;;22.80;30.80;;;;;;5028324;28;20028;-48
2022/01/14 01:52:56;;;;;;;4.10;2.97;;;22.80;30.90;;;;;;5028194;28;20033;-45
2022/01/14 01:55:23;;;;;;;4.30;2.50;;;22.80;30.90;;;;;;5028271;28;20104;-46
2022/01/14 01:57:50;;;;;;;4.60;3.00;;;22.80;30.80;;;;;;5028229;28;20733;-46
2022/01/14 02:00:25;;;;;;;4.03;2.45;;;22.80;30.80;;;;;;5011188;28;20045;-45
2022/01/14 02:02:54;;;;;;;3.55;2.15;;;22.80;30.90;;;;;;5007242;28;20428;-46
2022/01/14 02:05:20;;;;;;;4.18;2.78;;;22.80;30.90;;;;;;5008020;28;20053;-46
2022/01/14 02:07:46;;;;;;;3.42;2.03;;;22.70;30.90;;;;;;5007975;28;20084;-45
2022/01/14 02:10:13;;;;;;;4.00;2.63;;;22.70;30.90;;;;;;5007995;28;20054;-46
2022/01/14 02:12:48;;;;;;;3.60;2.20;;;22.70;31.60;;;;;;5007435;28;20160;-47
2022/01/14 02:15:27;;;;;;;4.28;2.60;;;22.70;30.80;;;;;;5006494;28;20958;-46
2022/01/14 02:18:26;;;;;;;3.83;2.40;;;22.70;30.80;;;;;;5007066;28;20038;-46
2022/01/14 02:23:25;;;;;;;3.45;2.33;;;22.60;30.80;;;;;;5006573;28;20517;-47
2022/01/14 02:25:51;;;;;;;4.53;2.88;;;22.60;30.80;;;;;;5007965;28;20504;-46
2022/01/14 02:28:17;;;;;;;4.30;2.78;;;22.60;30.80;;;;;;5008981;28;20107;-46
2022/01/14 02:30:46;;;;;;;4.40;2.80;;;22.60;30.70;;;;;;5026906;28;20531;-46
2022/01/14 02:33:13;;;;;;;3.70;2.35;;;22.60;30.70;;;;;;5027326;28;20022;-45
2022/01/14 02:35:41;;;;;;;3.58;2.25;;;22.60;30.70;;;;;;5027390;28;20032;-46
2022/01/14 02:38:09;;;;;;;3.60;2.22;;;22.60;30.70;;;;;;5027152;28;20029;-46
2022/01/14 02:40:34;;;;;;;4.25;2.85;;;22.60;30.90;;;;;;5026093;28;20033;-45
2022/01/14 02:43:01;;;;;;;3.90;2.53;;;22.60;30.80;;;;;;5027412;28;20116;-46
2022/01/14 02:45:33;;;;;;;4.22;2.67;;;22.50;30.70;;;;;;5008803;28;20029;-46
2022/01/14 02:48:01;;;;;;;3.90;2.45;;;22.50;30.90;;;;;;5004047;28;20022;-45
2022/01/14 02:50:35;;;;;;;4.07;2.67;;;22.50;30.90;;;;;;5005727;28;20033;-45
2022/01/14 02:53:11;;;;;;;4.15;2.65;;;22.50;30.80;;;;;;5006887;28;20033;-45
2022/01/14 02:55:43;;;;;;;3.60;2.50;;;22.50;30.80;;;;;;5007363;28;20026;-46
2022/01/14 02:58:09;;;;;;;3.83;2.30;;;22.50;30.80;;;;;;5007171;28;20033;-46
2022/01/14 03:00:36;;;;;;;3.67;2.30;;;22.40;30.70;;;;;;5024586;28;20021;-44
2022/01/14 03:03:04;;;;;;;3.25;1.80;;;22.50;30.70;;;;;;5025935;28;20091;-44
2022/01/14 03:05:31;;;;;;;4.07;2.15;;;22.50;30.70;;;;;;5026855;28;20111;-46
2022/01/14 03:07:58;;;;;;;4.22;2.75;;;22.50;30.70;;;;;;5026482;28;20032;-45
2022/01/14 03:10:23;;;;;;;3.47;2.03;;;22.50;30.70;;;;;;5026455;28;20366;-46
2022/01/14 03:12:49;;;;;;;3.83;2.33;;;22.40;30.80;;;;;;5015291;28;20067;-46
2022/01/14 03:15:16;;;;;;;4.03;2.55;;;22.40;30.80;;;;;;5006321;28;20041;-46
2022/01/14 03:17:43;;;;;;;3.92;2.35;;;22.40;30.70;;;;;;5005963;28;20065;-47
2022/01/14 03:20:14;;;;;;;4.07;2.53;;;22.40;30.70;;;;;;5006192;28;20632;-45
2022/01/14 03:22:52;;;;;;;3.35;2.13;;;22.40;30.60;;;;;;5006246;28;20022;-46
2022/01/14 03:28:02;;;;;;;3.60;2.40;;;22.40;30.60;;;;;;5019582;28;20071;-45
2022/01/14 03:30:28;;;;;;;4.00;2.38;;;22.40;30.50;;;;;;5009435;28;20038;-46
2022/01/14 03:32:53;;;;;;;4.10;2.42;;;22.40;30.60;;;;;;5010320;28;20017;-45
2022/01/14 03:35:19;;;;;;;3.72;2.20;;;22.30;30.50;;;;;;5026407;28;20226;-46
2022/01/14 03:37:45;;;;;;;3.60;2.38;;;22.30;30.60;;;;;;5025936;28;20037;-46
2022/01/14 03:40:12;;;;;;;3.28;1.95;;;22.30;30.50;;;;;;5025313;28;20109;-48
2022/01/14 03:42:38;;;;;;;3.60;2.53;;;22.30;30.60;;;;;;5026307;28;20111;-47
2022/01/14 03:45:04;;;;;;;3.53;2.15;;;22.30;30.40;;;;;;5013034;28;20662;-47
2022/01/14 03:47:30;;;;;;;3.85;2.20;;;22.30;30.50;;;;;;5003943;28;20053;-46
2022/01/14 03:49:56;;;;;;;3.97;2.28;;;22.30;30.60;;;;;;5005060;28;20026;-46
2022/01/14 03:52:21;;;;;;;3.78;2.38;;;22.30;30.50;;;;;;5005058;28;20026;-46
2022/01/14 03:54:48;;;;;;;4.95;2.65;;;22.30;30.50;;;;;;5006209;28;20036;-46
2022/01/14 03:57:14;;;;;;;3.58;2.20;;;22.20;30.40;;;;;;5013037;28;20080;-45
2022/01/14 03:59:40;;;;;;;4.05;2.50;;;22.20;30.50;;;;;;5016028;28;20072;-47
2022/01/14 04:02:05;;;;;;;3.70;2.15;;;22.20;30.40;;;;;;5002928;28;20084;-46
2022/01/14 04:04:31;;;;;;;3.58;2.05;;;22.20;30.50;;;;;;5005921;28;20044;-46
2022/01/14 04:06:57;;;;;;;4.00;2.53;;;22.20;30.40;;;;;;5005567;28;20034;-47
2022/01/14 04:09:23;;;;;;;3.88;2.42;;;22.20;30.40;;;;;;5004365;28;20080;-46
2022/01/14 04:11:48;;;;;;;3.13;1.92;;;22.20;30.40;;;;;;5005672;28;20037;-46
2022/01/14 04:16:49;;;;;;;4.30;2.30;;;22.20;30.50;;;;;;5005052;28;20032;-44
2022/01/14 04:19:15;;;;;;;3.83;2.22;;;22.20;30.40;;;;;;5005115;28;20026;-46
2022/01/14 04:21:41;;;;;;;3.28;1.90;;;22.10;30.50;;;;;;5003543;28;20025;-46
2022/01/14 04:24:06;;;;;;;4.10;2.17;;;22.10;30.60;;;;;;5005217;28;20052;-46
2022/01/14 04:26:32;;;;;;;3.40;2.03;;;22.20;30.50;;;;;;5007337;28;20030;-46
2022/01/14 04:28:58;;;;;;;3.38;2.13;;;22.10;30.40;;;;;;5022385;28;20066;-46
2022/01/14 04:31:23;;;;;;;3.40;2.10;;;22.10;30.50;;;;;;5005170;28;20022;-46
2022/01/14 04:33:49;;;;;;;3.72;2.17;;;22.10;30.50;;;;;;5003874;28;20033;-44
2022/01/14 04:36:15;;;;;;;4.13;2.53;;;22.10;30.50;;;;;;5005362;28;20069;-45
2022/01/14 04:38:41;;;;;;;3.65;2.10;;;22.10;31.10;;;;;;5005203;28;20038;-47
2022/01/14 04:41:06;;;;;;;3.90;2.22;;;22.10;31.10;;;;;;5004493;28;20037;-45
2022/01/14 04:43:32;;;;;;;3.95;2.20;;;22.10;30.50;;;;;;5004955;28;20029;-46
2022/01/14 04:48:32;;;;;;;3.13;2.00;;;22.10;30.40;;;;;;5023910;28;20039;-45
2022/01/14 04:50:59;;;;;;;3.88;2.17;;;22.10;30.40;;;;;;5021999;28;20072;-47
2022/01/14 04:53:26;;;;;;;3.80;2.28;;;22.00;30.30;;;;;;5024682;28;20022;-46
2022/01/14 04:55:53;;;;;;;3.53;2.08;;;22.10;30.30;;;;;;5023939;28;20026;-45
2022/01/14 04:58:19;;;;;;;4.10;2.30;;;22.00;30.20;;;;;;5023964;28;20033;-45
2022/01/14 05:00:45;;;;;;;3.97;2.58;;;22.00;30.20;;;;;;5007443;28;20524;-44
2022/01/14 05:03:10;;;;;;;4.22;2.40;;;22.00;30.20;;;;;;5004397;28;20064;-46
2022/01/14 05:05:40;;;;;;;3.58;2.10;;;22.00;30.30;;;;;;5004725;28;20044;-45
2022/01/14 05:08:10;;;;;;;2.97;1.55;;;22.00;30.30;;;;;;5004716;28;20026;-46
2022/01/14 05:10:48;;;;;;;3.67;2.08;;;22.00;30.30;;;;;;5004044;28;20022;-45
2022/01/14 05:13:14;;;;;;;3.28;2.00;;;22.00;30.40;;;;;;5004500;28;20033;-46
2022/01/14 05:15:40;;;;;;;4.00;2.13;;;22.00;30.40;;;;;;5020121;28;20085;-46
2022/01/14 05:18:06;;;;;;;3.10;1.90;;;22.00;30.50;;;;;;5024233;28;20059;-46
2022/01/14 05:20:31;;;;;;;3.95;2.42;;;22.00;30.40;;;;;;5023636;28;20029;-45
2022/01/14 05:22:57;;;;;;;4.10;2.55;;;22.00;30.40;;;;;;5015680;28;20026;-46
2022/01/14 05:25:23;;;;;;;4.50;2.95;;;22.00;30.40;;;;;;5003726;28;20061;-45
2022/01/14 05:27:49;;;;;;;4.05;2.42;;;22.00;30.30;;;;;;5015703;28;20041;-47
2022/01/14 05:30:15;;;;;;;4.20;2.55;;;22.00;30.40;;;;;;5011440;28;20022;-46
2022/01/14 05:32:46;;;;;;;4.18;2.50;;;22.00;30.30;;;;;;5007459;28;20026;-47
2022/01/14 05:35:14;;;;;;;4.28;2.45;;;22.10;30.40;;;;;;5024775;28;20075;-46
2022/01/14 05:37:40;;;;;;;3.83;2.13;;;22.10;30.50;;;;;;5024413;28;20268;-47
2022/01/14 05:40:06;;;;;;;3.83;2.30;;;22.10;30.40;;;;;;5023950;28;20025;-45
2022/01/14 05:42:34;;;;;;;3.40;2.05;;;22.20;30.40;;;;;;5024571;28;20544;-44
2022/01/14 05:45:00;;;;;;;4.00;2.47;;;22.30;30.50;;;;;;5014171;28;20030;-45
2022/01/14 05:47:26;;;;;;;4.13;2.30;;;22.30;30.50;;;;;;5004510;28;20034;-46
2022/01/14 05:49:51;;;;;;;3.83;2.20;;;22.40;30.50;;;;;;5004320;28;20033;-45
2022/01/14 05:52:19;;;;;;;4.10;2.33;;;22.40;30.50;;;;;;5004187;28;20486;-48
2022/01/14 05:54:45;;;;;;;3.45;2.00;;;22.50;30.40;;;;;;5004823;28;20038;-47
2022/01/14 05:57:11;;;;;;;4.05;2.60;;;22.50;30.30;;;;;;5011166;28;20100;-46
2022/01/14 05:59:36;;;;;;;3.83;2.10;;;22.60;30.30;;;;;;5017896;28;20030;-46
2022/01/14 06:02:02;;;;;;;4.07;2.58;;;22.70;30.20;;;;;;5004502;28;20026;-44
2022/01/14 06:04:28;;;;;;;3.67;2.25;;;22.70;30.00;;;;;;5015487;28;20038;-47
2022/01/14 06:06:54;;;;;;;3.60;2.17;;;22.80;30.10;;;;;;5023651;28;20157;-44
2022/01/14 06:09:20;;;;;;;3.92;2.47;;;22.80;30.00;;;;;;5023070;28;20021;-44
2022/01/14 06:11:45;;;;;;;3.20;1.65;;;22.90;30.00;;;;;;5023438;28;20030;-44
2022/01/14 06:14:11;;;;;;;3.40;1.85;;;23.00;30.10;;;;;;5023276;28;20433;-44
2022/01/14 06:16:37;;;;;;;3.80;2.03;;;23.00;30.20;;;;;;5023128;28;20373;-44
2022/01/14 06:19:02;;;;;;;4.55;2.53;;;23.10;30.30;;;;;;5023755;28;20025;-43
2022/01/14 06:21:28;;;;;;;4.00;2.22;;;23.20;30.40;;;;;;5020188;28;20045;-43
2022/01/14 06:23:54;;;;;;;3.63;2.10;;;23.30;30.50;;;;;;5024527;28;20030;-43
2022/01/14 06:26:20;;;;;;;3.55;1.80;;;23.30;31.10;;;;;;5026879;28;20021;-44
2022/01/14 06:28:46;;;;;;;3.85;2.25;;;23.40;30.40;;;;;;5024051;28;20043;-44
2022/01/14 06:31:12;;;;;;;3.80;2.30;;;23.50;30.30;;;;;;5023077;28;20030;-44
2022/01/14 06:33:38;;;;;;;4.68;2.53;;;23.50;30.20;;;;;;5024532;28;20614;-43
2022/01/14 06:36:04;;;;;;;3.92;2.38;;;23.50;30.10;;;;;;5023239;28;20064;-44
2022/01/14 06:38:29;;;;;;;4.45;2.58;;;23.60;30.00;;;;;;5023448;28;20029;-43
2022/01/14 06:40:55;;;;;;;4.38;2.40;;;23.70;30.00;;;;;;5026465;28;20026;-43
2022/01/14 06:43:21;;;;;;;3.55;2.20;;;23.70;30.00;;;;;;5024801;28;20088;-44
2022/01/14 06:45:46;;;;;;;4.72;2.50;;;23.80;29.90;;;;;;5024633;28;20517;-44
2022/01/14 06:48:12;;;;;;;3.67;2.55;;;23.80;29.80;;;;;;5025440;28;20029;-44
2022/01/14 06:50:38;;;;;;;3.95;2.50;;;23.90;30.00;;;;;;5018059;28;20033;-44
2022/01/14 06:53:04;;;;;;;3.72;2.08;;;24.00;30.00;;;;;;5024204;28;20022;-43
2022/01/14 06:55:30;;;;;;;3.88;2.53;;;24.00;30.00;;;;;;5023290;28;20057;-44
2022/01/14 06:57:55;;;;;;;3.90;2.35;;;24.00;29.80;;;;;;5023110;28;20400;-43
2022/01/14 07:00:21;;;;;;;4.28;2.47;;;24.10;29.90;;;;;;5022285;28;20036;-43
2022/01/14 07:02:47;;;;;;;3.55;2.30;;;24.20;29.80;;;;;;5020956;28;20033;-43
2022/01/14 07:05:14;;;;;;;4.55;2.50;;;24.20;29.70;;;;;;5022338;28;20639;-43
2022/01/14 07:07:40;;;;;;;4.03;2.30;;;24.30;29.80;;;;;;5021018;28;20026;-43
2022/01/14 07:10:07;;;;;;;5.05;2.58;;;24.30;29.60;;;;;;5022475;28;20026;-43
2022/01/14 07:12:43;;;;;;;3.58;2.08;;;24.30;29.50;;;;;;5022768;28;20114;-43
2022/01/14 07:15:11;;;;;;;4.95;2.30;;;24.40;29.50;;;;;;5022692;28;20087;-43
2022/01/14 07:17:37;;;;;;;3.55;2.10;;;24.40;29.40;;;;;;5023229;28;20036;-43
2022/01/14 07:20:08;;;;;;;4.00;2.47;;;24.50;29.40;;;;;;5022138;28;20025;-43
2022/01/14 07:22:34;;;;;;;4.65;2.30;;;24.50;29.40;;;;;;5021808;28;20076;-44
2022/01/14 07:25:00;;;;;;;4.38;2.60;;;24.60;30.20;;;;;;5025484;28;20037;-43
2022/01/14 07:27:27;;;;;;;4.00;2.47;;;24.60;29.50;;;;;;5024132;28;20048;-43
2022/01/14 07:29:54;;;;;;;5.15;2.58;;;24.70;29.50;;;;;;5019926;28;20751;-48
2022/01/14 07:32:20;;;;;;;5.07;2.30;;;24.70;30.10;;;;;;5019091;28;20029;-43
2022/01/14 07:34:47;;;;;;;5.57;2.42;;;24.70;29.40;;;;;;5019641;28;20198;-44
2022/01/14 07:37:13;;;;;;;6.72;2.88;;;24.80;29.60;;;;;;5022744;28;20040;-44
2022/01/14 07:39:39;;;;;;;3.88;2.03;;;24.80;29.80;;;;;;5020070;28;20048;-44
2022/01/14 07:42:06;;;;;;;5.30;2.85;;;24.90;29.90;;;;;;5020943;28;20029;-44
2022/01/14 07:44:32;;;;;;;4.88;2.60;;;24.90;30.00;;;;;;5019803;28;20139;-45
2022/01/14 07:46:58;;;;;;;49.28;15.30;;;24.90;30.20;;;;;;5022462;28;20018;-45
2022/01/14 07:49:24;;;;;;;40.92;13.30;;;24.90;30.10;;;;;;5024087;28;20028;-44
2022/01/14 07:51:49;;;;;;;32.55;13.30;;;25.00;30.20;;;;;;5023099;28;20656;-43
2022/01/14 07:54:15;;;;;;;34.33;12.65;;;25.00;29.90;;;;;;5015730;28;20030;-44
2022/01/14 07:56:48;;;;;;;26.13;11.13;;;25.00;29.80;;;;;;5023814;28;20026;-44
2022/01/14 07:59:15;;;;;;;23.70;10.48;;;25.00;29.70;;;;;;5021025;28;20077;-44
2022/01/14 08:01:42;;;;;;;23.98;10.88;;;25.10;29.70;;;;;;5004104;28;20030;-43
2022/01/14 08:04:08;;;;;;;31.10;12.82;;;25.10;29.60;;;;;;5004809;28;20044;-44
2022/01/14 08:06:38;;;;;;;25.88;10.60;;;25.20;29.40;;;;;;5004350;28;20026;-44
2022/01/14 08:09:05;;;;;;;30.63;11.55;;;25.20;29.40;;;;;;5005278;28;20028;-44
2022/01/14 08:11:30;;;;;;;25.25;11.32;;;25.20;29.30;;;;;;5003920;28;20029;-44
2022/01/14 08:13:56;;;;;;;20.45;10.88;;;25.20;29.10;;;;;;5006065;28;20030;-44
2022/01/14 08:16:22;;;;;;;23.40;9.77;;;25.20;29.10;;;;;;5005614;28;20034;-44
2022/01/14 08:18:48;;;;;;;26.63;9.98;;;25.20;29.30;;;;;;5005854;28;20033;-44
2022/01/14 08:21:15;;;;;;;17.98;8.60;;;25.20;29.00;;;;;;5005395;28;20259;-44
2022/01/14 08:23:41;;;;;;;16.65;7.85;;;25.20;29.00;;;;;;5005676;28;20036;-44
2022/01/14 08:26:07;;;;;;;18.85;8.98;;;25.30;28.90;;;;;;5006036;28;20441;-44
2022/01/14 08:28:33;;;;;;;15.85;7.47;;;25.30;29.60;;;;;;5024802;28;20029;-44
2022/01/14 08:30:59;;;;;;;17.90;7.60;;;25.30;28.90;;;;;;5025307;28;20057;-44
2022/01/14 08:33:25;;;;;;;12.55;6.30;;;25.30;28.80;;;;;;5025291;28;20020;-44
2022/01/14 08:35:50;;;;;;;15.43;6.70;;;25.30;28.80;;;;;;5025207;28;20033;-45
2022/01/14 08:38:16;;;;;;;12.10;6.13;;;25.30;28.70;;;;;;5025126;28;20025;-43
2022/01/14 08:40:42;;;;;;;16.17;7.00;;;25.30;28.70;;;;;;5024517;28;20033;-44
2022/01/14 08:43:08;;;;;;;13.73;5.85;;;25.30;28.70;;;;;;5025130;28;20029;-44
2022/01/14 08:45:35;;;;;;;12.70;6.00;;;25.40;28.70;;;;;;5024507;28;20042;-44
2022/01/14 08:48:01;;;;;;;12.85;6.15;;;25.40;28.60;;;;;;5023446;28;20041;-44
2022/01/14 08:50:30;;;;;;;11.55;5.90;;;25.40;28.50;;;;;;5024371;28;20025;-44
2022/01/14 08:52:59;;;;;;;10.25;4.50;;;25.40;28.50;;;;;;5024726;28;20021;-44
2022/01/14 08:55:25;;;;;;;11.35;4.68;;;25.40;28.50;;;;;;5023536;28;20120;-44
2022/01/14 08:57:52;;;;;;;9.25;4.90;;;25.40;28.50;;;;;;5024694;28;20535;-44
2022/01/14 09:00:19;;;;;;;9.73;4.55;;;25.40;28.50;;;;;;5015498;28;20231;-43
2022/01/14 09:02:45;;;;;;;9.68;5.10;;;25.40;28.40;;;;;;5004923;28;20096;-44
2022/01/14 09:05:11;;;;;;;9.82;5.18;;;25.40;28.40;;;;;;5004707;28;20038;-44
2022/01/14 09:07:38;;;;;;;11.65;4.75;;;25.40;28.30;;;;;;5004688;28;20018;-44
2022/01/14 09:10:06;;;;;;;7.05;4.30;;;25.40;28.30;;;;;;5004420;28;20033;-44
2022/01/14 09:12:33;;;;;;;8.80;3.88;;;25.40;28.30;;;;;;5004735;28;20083;-44
2022/01/14 09:15:00;;;;;;;6.55;3.92;;;25.40;28.30;;;;;;5010960;28;20033;-44
2022/01/14 09:17:26;;;;;;;7.70;3.90;;;25.40;28.20;;;;;;5024075;28;20429;-44
2022/01/14 09:19:52;;;;;;;7.90;3.90;;;25.40;28.20;;;;;;5024586;28;20490;-44
2022/01/14 09:22:18;;;;;;;6.07;3.47;;;25.40;28.20;;;;;;5023841;28;20091;-42
2022/01/14 09:24:45;;;;;;;5.63;3.20;;;25.40;28.30;;;;;;5024199;28;20486;-44
2022/01/14 09:27:12;;;;;;;9.50;4.18;;;25.40;28.00;;;;;;5023626;28;20482;-44
2022/01/14 09:29:38;;;;;;;7.00;3.55;;;25.40;28.00;;;;;;5023546;28;20676;-44
2022/01/14 09:32:05;;;;;;;8.35;3.75;;;25.40;28.30;;;;;;5019201;28;20065;-44
2022/01/14 09:34:32;;;;;;;6.03;3.10;;;25.40;28.40;;;;;;5013887;28;20395;-44
2022/01/14 09:36:58;;;;;;;6.93;4.10;;;25.40;28.60;;;;;;5023525;28;20025;-44
2022/01/14 09:39:24;;;;;;;6.25;3.30;;;25.50;28.60;;;;;;5006555;28;20076;-44
2022/01/14 09:41:50;;;;;;;5.70;3.63;;;25.50;28.50;;;;;;5004219;28;20031;-44
2022/01/14 09:44:18;;;;;;;5.93;3.22;;;25.40;28.60;;;;;;5003999;28;20025;-45
2022/01/14 09:46:43;;;;;;;6.53;3.67;;;25.40;28.50;;;;;;5023811;28;20034;-44
2022/01/14 09:49:13;;;;;;;5.80;3.20;;;25.50;28.50;;;;;;5023510;28;20025;-44
2022/01/14 09:51:38;;;;;;;4.47;2.92;;;25.40;28.50;;;;;;5005318;28;20038;-44
2022/01/14 09:54:06;;;;;;;4.63;2.78;;;25.50;28.60;;;;;;5003486;28;20034;-44
2022/01/14 09:56:32;;;;;;;5.93;3.00;;;25.50;28.50;;;;;;5004868;28;20066;-44
2022/01/14 09:58:59;;;;;;;4.50;2.53;;;25.50;28.60;;;;;;5026726;28;20707;-44
2022/01/14 10:01:25;;;;;;;5.03;2.80;;;25.50;28.60;;;;;;5026546;28;20044;-44
2022/01/14 10:04:02;;;;;;;5.03;2.78;;;25.50;28.60;;;;;;5026299;28;20030;-44
2022/01/14 10:06:55;;;;;;;4.78;2.85;;;25.50;29.20;;;;;;5027048;28;20700;-44
2022/01/14 10:09:31;;;;;;;4.87;2.60;;;25.50;28.50;;;;;;5026847;28;20040;-44
2022/01/14 10:12:03;;;;;;;4.40;2.90;;;25.50;28.40;;;;;;5026532;28;20025;-44
2022/01/14 10:14:30;;;;;;;4.72;2.38;;;25.50;28.40;;;;;;5025812;28;20037;-44
2022/01/14 10:16:58;;;;;;;4.88;2.60;;;25.50;28.30;;;;;;5007040;28;20030;-44
2022/01/14 10:19:27;;;;;;;4.78;2.40;;;25.50;28.30;;;;;;5007245;28;20033;-44
2022/01/14 10:21:54;;;;;;;4.68;2.95;;;25.50;28.20;;;;;;5014611;28;20018;-47
2022/01/14 10:24:23;;;;;;;5.97;2.75;;;25.40;28.30;;;;;;5025541;28;20044;-44
2022/01/14 10:27:01;;;;;;;4.35;2.78;;;25.40;28.30;;;;;;5026753;28;20119;-44
2022/01/14 10:29:29;;;;;;;4.57;2.67;;;25.50;28.50;;;;;;5026404;28;20525;-44
2022/01/14 10:31:55;;;;;;;4.20;2.47;;;25.40;28.40;;;;;;5026312;28;20026;-44
2022/01/14 10:34:21;;;;;;;3.72;2.17;;;25.40;28.30;;;;;;5025720;28;20021;-44
2022/01/14 10:36:50;;;;;;;4.97;2.67;;;25.40;28.30;;;;;;5017771;28;20037;-44
2022/01/14 10:39:20;;;;;;;4.32;2.58;;;25.40;28.20;;;;;;5006271;28;20042;-44
2022/01/14 10:41:46;;;;;;;4.40;2.55;;;25.40;29.10;;;;;;5011866;28;20013;-43
2022/01/14 10:44:38;;;;;;;3.67;2.30;;;25.40;28.30;;;;;;5014908;28;20056;-44
2022/01/14 10:47:11;;;;;;;4.70;2.13;;;25.40;28.40;;;;;;5006744;28;20038;-43
2022/01/14 10:49:37;;;;;;;4.38;2.55;;;25.40;28.40;;;;;;5024278;28;20026;-44
2022/01/14 10:52:11;;;;;;;4.68;2.60;;;25.40;28.50;;;;;;5025553;28;20029;-44
2022/01/14 10:54:55;;;;;;;4.80;2.60;;;25.40;28.40;;;;;;5024536;28;20063;-44
2022/01/14 10:57:26;;;;;;;4.25;2.38;;;25.40;28.40;;;;;;5024781;28;20135;-44
2022/01/14 10:59:58;;;;;;;4.75;2.42;;;25.40;28.20;;;;;;5025045;28;20036;-44
2022/01/14 11:02:42;;;;;;;3.65;2.30;;;25.30;28.40;;;;;;5025365;28;20025;-44
2022/01/14 11:05:17;;;;;;;4.25;2.38;;;25.40;28.30;;;;;;5025013;28;20056;-44
2022/01/14 11:07:46;;;;;;;4.65;2.28;;;25.40;28.30;;;;;;5025469;28;20029;-44
2022/01/14 11:10:30;;;;;;;4.00;2.33;;;25.40;28.40;;;;;;5025225;28;20030;-44
2022/01/14 11:12:57;;;;;;;6.25;2.60;;;25.40;28.40;;;;;;5025481;28;20025;-44
2022/01/14 11:15:25;;;;;;;3.50;1.90;;;25.40;29.00;;;;;;5019036;28;20037;-43
2022/01/14 11:17:55;;;;;;;3.50;1.92;;;25.40;29.00;;;;;;5006588;28;20037;-43
2022/01/14 11:20:28;;;;;;;3.13;1.77;;;25.40;28.40;;;;;;5006422;28;20041;-44
2022/01/14 11:25:57;;;;;;;3.70;1.88;;;25.40;28.50;;;;;;5006682;28;20500;-45
2022/01/14 11:28:38;;;;;;;3.10;1.73;;;25.40;28.40;;;;;;5023297;28;20571;-43
2022/01/14 11:31:41;;;;;;;3.67;1.90;;;25.40;28.50;;;;;;5026307;28;20087;-44
2022/01/14 11:34:10;;;;;;;3.13;1.55;;;25.40;28.50;;;;;;5003336;28;20038;-44
2022/01/14 11:36:53;;;;;;;3.50;1.70;;;25.40;28.60;;;;;;5022419;28;20073;-43
2022/01/14 11:39:23;;;;;;;4.20;1.80;;;25.40;28.50;;;;;;5026516;28;20083;-44
2022/01/14 11:41:58;;;;;;;3.05;1.83;;;25.40;28.40;;;;;;5026070;28;20033;-44
2022/01/14 11:47:36;;;;;;;2.45;1.42;;;25.40;28.60;;;;;;5025719;28;20533;-44
2022/01/14 11:50:05;;;;;;;3.40;1.70;;;25.40;28.60;;;;;;5025918;28;20032;-44
2022/01/14 11:52:35;;;;;;;3.35;1.73;;;25.50;28.50;;;;;;5026244;28;20021;-43
2022/01/14 11:55:01;;;;;;;3.17;1.55;;;25.40;28.60;;;;;;5026100;28;20108;-44
2022/01/14 11:57:46;;;;;;;3.67;1.75;;;25.50;28.50;;;;;;5025406;28;20179;-44
2022/01/14 12:00:27;;;;;;;3.22;1.80;;;25.40;28.50;;;;;;5024443;28;20048;-44
2022/01/14 12:02:54;;;;;;;4.15;2.38;;;25.50;28.40;;;;;;5025507;28;20156;-44
2022/01/14 12:05:27;;;;;;;2.90;1.40;;;25.50;28.50;;;;;;5026038;28;20030;-44
2022/01/14 12:08:02;;;;;;;3.42;1.40;;;25.50;28.40;;;;;;5025657;28;20429;-44
2022/01/14 12:10:36;;;;;;;2.50;1.27;;;25.50;28.50;;;;;;5025526;28;20025;-44
2022/01/14 12:13:37;;;;;;;2.85;1.40;;;25.50;28.50;;;;;;5025403;28;20017;-44
2022/01/14 12:16:08;;;;;;;2.60;1.38;;;25.50;28.50;;;;;;5025270;28;20040;-44
2022/01/14 12:18:58;;;;;;;2.85;1.45;;;25.50;28.40;;;;;;5025072;28;20436;-44
2022/01/14 12:21:51;;;;;;;2.90;1.70;;;25.50;28.50;;;;;;5025614;28;20251;-43
2022/01/14 12:24:30;;;;;;;2.78;1.48;;;25.50;28.50;;;;;;5025443;28;20092;-44
2022/01/14 12:27:03;;;;;;;3.35;1.73;;;25.50;28.40;;;;;;5025294;28;20025;-44
2022/01/14 12:29:38;;;;;;;2.58;1.33;;;25.50;28.40;;;;;;5040365;28;20043;-43
2022/01/14 12:32:05;;;;;;;3.22;1.90;;;25.60;28.50;;;;;;5009992;28;20119;-43
2022/01/14 12:34:32;;;;;;;3.53;1.45;;;25.50;28.50;;;;;;5024366;28;20545;-44
2022/01/14 12:36:58;;;;;;;4.60;1.30;;;25.60;28.60;;;;;;5019342;28;20034;-44
2022/01/14 12:39:24;;;;;;;4.50;1.20;;;25.60;28.60;;;;;;5020311;28;20032;-44
2022/01/14 12:41:54;;;;;;;2.60;1.35;;;25.60;28.50;;;;;;5022429;28;20099;-43
2022/01/14 12:44:23;;;;;;;2.70;1.40;;;25.60;28.50;;;;;;5024580;28;20025;-43
2022/01/14 12:47:05;;;;;;;3.17;1.48;;;25.60;28.50;;;;;;5016490;28;20041;-44
2022/01/14 12:49:35;;;;;;;2.67;1.40;;;25.60;28.60;;;;;;5018892;28;20257;-44
2022/01/14 12:52:09;;;;;;;2.85;1.25;;;25.60;28.50;;;;;;5020186;28;20025;-44
2022/01/14 12:54:38;;;;;;;3.58;0.98;;;25.60;28.60;;;;;;5018308;28;20647;-44
2022/01/14 12:57:04;;;;;;;3.20;1.38;;;25.70;28.50;;;;;;5020471;28;20592;-44
2022/01/14 12:59:44;;;;;;;3.10;1.35;;;25.70;28.50;;;;;;5022842;28;20021;-44
2022/01/14 13:02:24;;;;;;;2.47;1.05;;;25.70;28.50;;;;;;5003753;28;20033;-44
2022/01/14 13:05:07;;;;;;;2.80;1.52;;;25.70;28.50;;;;;;5021486;28;20099;-44
2022/01/14 13:07:34;;;;;;;3.20;1.35;;;25.70;28.60;;;;;;5021661;28;20562;-44
2022/01/14 13:10:02;;;;;;;2.53;1.15;;;25.70;28.80;;;;;;5023180;28;20428;-44
2022/01/14 13:12:36;;;;;;;4.13;1.60;;;25.80;29.00;;;;;;5018568;28;20029;-44
2022/01/14 13:15:04;;;;;;;3.63;1.58;;;25.80;29.00;;;;;;5021612;28;20701;-44
2022/01/14 13:17:36;;;;;;;2.97;1.35;;;25.80;29.10;;;;;;5016834;28;20041;-43
2022/01/14 13:20:07;;;;;;;2.67;1.27;;;25.80;29.00;;;;;;5015671;28;20084;-43